createdAt,value
2018-12-12T00:02:12.503Z,75.43
2018-12-12T00:07:09.856Z,75.02
2018-12-12T00:12:05.886Z,75.77
2018-12-12T00:17:01.937Z,75.38
2018-12-12T00:21:57.979Z,75.65
2018-12-12T00:26:54.012Z,75.32
2018-12-12T00:31:51.655Z,75.96
2018-12-12T00:36:47.822Z,74.79
2018-12-12T00:41:43.888Z,74.60
2018-12-12T00:46:40.342Z,74.58
2018-12-12T00:51:36.529Z,75.49
2018-12-12T00:56:32.552Z,76.20
2018-12-12T01:01:28.593Z,75.48
2018-12-12T01:06:24.636Z,74.47
2018-12-12T01:11:27.090Z,74.84
2018-12-12T01:16:23.117Z,76.90
2018-12-12T01:21:19.189Z,78.71
2018-12-12T01:26:15.217Z,80.02
2018-12-12T01:31:11.264Z,80.22
2018-12-12T01:36:07.416Z,80.18
2018-12-12T01:41:03.482Z,77.07
2018-12-12T01:46:00.990Z,78.80
2018-12-12T01:50:57.007Z,79.42
2018-12-12T01:55:53.090Z,76.77
2018-12-12T02:00:49.129Z,76.65
2018-12-12T02:05:45.146Z,76.88
2018-12-12T02:10:41.306Z,77.87
2018-12-12T02:15:37.343Z,77.26
2018-12-12T02:20:33.352Z,77.39
2018-12-12T02:25:29.377Z,77.46
2018-12-12T02:30:25.411Z,77.89
2018-12-12T02:35:21.511Z,77.96
2018-12-12T02:40:17.555Z,80.29
2018-12-12T02:45:13.593Z,80.97
2018-12-12T02:50:09.621Z,78.69
2018-12-12T02:55:05.765Z,79.27
2018-12-12T03:00:02.132Z,79.86
2018-12-12T03:04:58.158Z,78.66
2018-12-12T03:09:54.181Z,78.24
2018-12-12T03:14:50.227Z,78.32
2018-12-12T03:19:46.293Z,79.56
2018-12-12T03:24:42.335Z,78.85
2018-12-12T03:29:38.372Z,79.31
2018-12-12T03:34:34.435Z,79.90
2018-12-12T03:39:31.646Z,80.58
2018-12-12T03:44:27.664Z,80.55
2018-12-12T03:49:23.779Z,80.50
2018-12-12T03:54:19.826Z,81.62
2018-12-12T03:59:15.840Z,81.98
2018-12-12T04:04:11.853Z,83.46
2018-12-12T04:09:07.929Z,83.88
2018-12-12T04:14:03.948Z,84.21
2018-12-12T04:19:00.193Z,85.01
2018-12-12T04:23:56.213Z,86.10
2018-12-12T04:28:52.229Z,87.11
2018-12-12T04:33:48.333Z,86.88
2018-12-12T04:38:44.368Z,85.47
2018-12-12T04:43:40.391Z,85.54
2018-12-12T04:48:36.429Z,85.99
2018-12-12T04:53:32.451Z,87.26
2018-12-12T04:58:28.485Z,86.86
2018-12-12T05:03:24.592Z,88.74
2018-12-12T05:08:20.613Z,88.13
2018-12-12T05:13:16.669Z,88.16
2018-12-12T05:18:12.701Z,86.65
2018-12-12T05:23:08.766Z,87.16
2018-12-12T05:28:04.885Z,88.94
2018-12-12T05:33:00.926Z,88.51
2018-12-12T05:37:56.940Z,88.61
2018-12-12T05:42:52.982Z,89.98
2018-12-12T05:47:49.001Z,88.88
2018-12-12T05:52:45.021Z,89.54
2018-12-12T05:57:41.044Z,88.08
2018-12-12T06:02:37.802Z,87.60
2018-12-12T06:07:33.809Z,88.12
2018-12-12T06:12:29.814Z,87.18
2018-12-12T06:17:25.978Z,86.54
2018-12-12T06:22:22.353Z,86.44
2018-12-12T06:27:18.389Z,86.57
2018-12-12T06:32:19.362Z,86.25
2018-12-12T06:37:15.390Z,86.35
2018-12-12T06:42:11.468Z,87.25
2018-12-12T06:47:07.529Z,86.73
2018-12-12T06:52:03.573Z,87.12
2018-12-12T06:56:59.597Z,87.15
2018-12-12T07:01:59.239Z,86.98
2018-12-12T07:06:56.459Z,87.34
2018-12-12T07:11:52.539Z,87.88
2018-12-12T07:16:48.586Z,87.68
2018-12-12T07:21:44.648Z,87.02
2018-12-12T07:26:40.714Z,88.00
2018-12-12T07:31:38.526Z,86.46
2018-12-12T07:36:34.740Z,86.76
2018-12-12T07:41:31.210Z,87.47
2018-12-12T07:46:27.947Z,87.49
2018-12-12T07:51:24.137Z,87.58
2018-12-12T07:56:20.211Z,87.75
2018-12-12T08:01:16.292Z,87.53
2018-12-12T08:06:12.384Z,88.08
2018-12-12T08:11:08.416Z,87.46
2018-12-12T08:16:04.789Z,86.51
2018-12-12T08:21:00.877Z,86.81
2018-12-12T08:25:56.946Z,85.94
2018-12-12T08:30:53.166Z,86.70
2018-12-12T08:35:49.257Z,85.91
2018-12-12T08:40:45.361Z,86.57
2018-12-12T08:45:41.433Z,85.95
2018-12-12T08:50:37.514Z,86.27
2018-12-12T08:55:33.921Z,85.92
2018-12-12T09:00:29.976Z,86.00
2018-12-12T09:05:26.020Z,85.92
2018-12-12T09:10:22.091Z,85.88
2018-12-12T09:15:18.147Z,86.10
2018-12-12T09:20:14.194Z,86.02
2018-12-12T09:25:10.278Z,86.32
2018-12-12T09:30:06.538Z,85.92
2018-12-12T09:35:03.659Z,86.01
2018-12-12T09:39:59.740Z,85.56
2018-12-12T09:44:55.785Z,85.59
2018-12-12T09:49:51.863Z,85.18
2018-12-12T09:54:47.893Z,85.04
2018-12-12T09:59:43.949Z,85.55
2018-12-12T10:04:40.122Z,83.98
2018-12-12T10:09:36.262Z,83.74
2018-12-12T10:14:32.306Z,84.42
2018-12-12T10:19:28.417Z,83.72
2018-12-12T10:24:24.683Z,83.41
2018-12-12T10:29:20.758Z,82.67
2018-12-12T10:34:16.859Z,82.55
2018-12-12T10:39:12.902Z,82.00
2018-12-12T10:44:08.990Z,82.59
2018-12-12T10:49:05.085Z,81.63
2018-12-12T10:54:01.253Z,82.24
2018-12-12T10:58:57.416Z,81.85
2018-12-12T11:03:53.675Z,81.82
2018-12-12T11:08:49.725Z,81.32
2018-12-12T11:13:45.770Z,80.71
2018-12-12T11:18:41.858Z,81.94
2018-12-12T11:23:37.973Z,82.50
2018-12-12T11:28:34.074Z,82.33
2018-12-12T11:33:30.280Z,81.65
2018-12-12T11:38:26.617Z,79.96
2018-12-12T11:43:22.759Z,78.07
2018-12-12T11:48:18.834Z,78.47
2018-12-12T11:53:15.075Z,78.22
2018-12-12T11:58:11.225Z,77.48
2018-12-12T12:03:07.832Z,77.70
2018-12-12T12:08:04.182Z,75.70
2018-12-12T12:13:00.391Z,76.29
2018-12-12T12:17:56.625Z,76.76
2018-12-12T12:22:52.852Z,77.16
2018-12-12T12:27:50.142Z,76.86
2018-12-12T12:32:47.405Z,77.46
2018-12-12T12:37:43.931Z,78.64
2018-12-12T12:42:40.006Z,77.04
2018-12-12T12:47:36.104Z,77.09
2018-12-12T12:52:32.186Z,77.21
2018-12-12T12:57:28.242Z,77.76
2018-12-12T13:02:25.168Z,77.17
2018-12-12T13:07:21.246Z,76.06
2018-12-12T13:12:17.366Z,77.13
2018-12-12T13:17:13.569Z,77.24
2018-12-12T13:22:09.618Z,76.74
2018-12-12T13:27:05.787Z,76.83
2018-12-12T13:32:03.447Z,76.88
2018-12-12T13:37:00.905Z,77.06
2018-12-12T13:41:59.706Z,75.87
2018-12-12T13:46:58.781Z,76.11
2018-12-12T13:51:56.783Z,76.75
2018-12-12T13:56:53.016Z,77.16
2018-12-12T14:01:51.208Z,78.56
2018-12-12T14:06:47.437Z,77.52
2018-12-12T14:11:43.472Z,78.30
2018-12-12T14:16:39.518Z,77.98
2018-12-12T14:21:35.587Z,78.07
2018-12-12T14:26:31.645Z,78.58
2018-12-12T14:31:27.723Z,78.78
2018-12-12T14:36:23.841Z,79.90
2018-12-12T14:41:19.955Z,79.97
2018-12-12T14:46:15.953Z,81.22
2018-12-12T14:51:12.025Z,81.13
2018-12-12T14:56:08.071Z,81.63
2018-12-12T15:01:04.157Z,81.84
2018-12-12T15:06:00.219Z,82.13
2018-12-12T15:10:56.264Z,83.04
2018-12-12T15:15:52.334Z,82.25
2018-12-12T15:20:48.365Z,83.35
2018-12-12T15:25:44.392Z,83.21
2018-12-12T15:30:41.106Z,83.10
2018-12-12T15:35:37.337Z,83.01
2018-12-12T15:40:33.469Z,82.98
2018-12-12T15:45:29.547Z,82.91
2018-12-12T15:55:32.456Z,83.17
2018-12-12T16:00:28.992Z,82.88
2018-12-12T16:05:26.178Z,82.63
2018-12-12T16:10:22.232Z,83.65
2018-12-12T16:15:18.269Z,84.44
2018-12-12T16:20:14.445Z,85.17
2018-12-12T16:25:10.523Z,85.61
2018-12-12T16:30:06.709Z,85.87
2018-12-12T16:35:03.068Z,86.60
2018-12-12T16:39:59.170Z,87.59
2018-12-12T16:44:55.224Z,87.94
2018-12-12T16:49:51.433Z,87.28
2018-12-12T16:54:47.533Z,88.00
2018-12-12T16:59:43.573Z,89.07
2018-12-12T17:04:39.608Z,89.43
2018-12-12T17:09:35.645Z,89.85
2018-12-12T17:14:31.681Z,90.50
2018-12-12T17:19:27.690Z,89.83
2018-12-12T17:24:23.757Z,89.19
2018-12-12T17:29:19.822Z,89.05
2018-12-12T17:34:15.889Z,88.74
2018-12-12T17:39:11.942Z,88.46
2018-12-12T17:44:07.975Z,88.52
2018-12-12T17:49:04.015Z,87.88
2018-12-12T17:54:00.082Z,88.15
2018-12-12T17:58:56.373Z,89.12
2018-12-12T18:03:52.903Z,88.85
2018-12-12T18:08:49.999Z,88.08
2018-12-12T18:13:47.070Z,89.14
2018-12-12T18:18:44.239Z,88.65
2018-12-12T18:23:40.801Z,88.43
2018-12-12T18:28:36.908Z,87.96
2018-12-12T18:33:33.804Z,88.76
2018-12-12T18:38:30.390Z,88.21
2018-12-12T18:43:26.386Z,89.28
2018-12-12T18:48:22.398Z,89.62
2018-12-12T18:53:18.410Z,89.56
2018-12-12T18:58:14.425Z,88.53
2018-12-12T19:03:12.279Z,88.78
2018-12-12T19:08:09.434Z,88.55
2018-12-12T19:13:06.665Z,88.44
2018-12-12T19:18:08.524Z,88.07
2018-12-12T19:23:08.815Z,88.52
2018-12-12T19:28:07.565Z,87.70
2018-12-12T19:33:06.236Z,86.69
2018-12-12T19:38:05.666Z,86.51
2018-12-12T19:43:04.383Z,86.82
2018-12-12T19:48:00.961Z,85.86
2018-12-12T19:52:57.322Z,86.40
2018-12-12T19:57:53.683Z,86.60
2018-12-12T20:02:51.897Z,86.15
2018-12-12T20:07:48.069Z,86.36
2018-12-12T20:12:44.106Z,85.67
2018-12-12T20:17:40.242Z,85.32
2018-12-12T20:22:38.763Z,85.45
2018-12-12T20:27:34.812Z,85.16
2018-12-12T20:32:33.755Z,85.12
2018-12-12T20:37:31.375Z,83.71
2018-12-12T20:42:27.454Z,83.87
2018-12-12T20:47:23.522Z,84.71
2018-12-12T20:52:19.607Z,85.31
2018-12-12T20:57:15.846Z,84.80
2018-12-12T21:02:14.445Z,84.87
2018-12-12T21:07:11.541Z,83.67
2018-12-12T21:12:08.768Z,83.94
2018-12-12T21:17:04.909Z,84.34
2018-12-12T21:22:01.053Z,84.48
2018-12-12T21:26:57.129Z,84.72
2018-12-12T21:32:01.306Z,84.99
2018-12-12T21:36:57.452Z,85.45
2018-12-12T21:41:53.469Z,85.41
2018-12-12T21:46:49.528Z,84.95
2018-12-12T21:51:45.549Z,84.67
2018-12-12T21:56:41.614Z,85.79
2018-12-12T22:01:38.896Z,85.54
2018-12-12T22:06:35.021Z,85.38
2018-12-12T22:22:00.115Z,87.13
2018-12-12T22:27:01.339Z,87.18
2018-12-12T22:32:11.599Z,87.55
2018-12-12T22:37:17.837Z,87.39
2018-12-12T22:42:23.159Z,87.25
2018-12-12T22:57:34.385Z,87.61
2018-12-12T23:02:37.457Z,87.27
2018-12-12T23:07:36.890Z,87.59
2018-12-12T23:12:42.858Z,87.67
2018-12-12T23:22:49.344Z,87.43
2018-12-12T23:27:51.571Z,87.64
2018-12-12T23:37:51.803Z,87.56
2018-12-12T23:42:47.998Z,88.13
2018-12-12T23:47:44.151Z,88.25
2018-12-12T23:52:40.305Z,88.82
2018-12-12T23:57:36.481Z,89.47
